67.1°F
Current conditions from King Hill
Updated every 5 minutes
 
  Monday September 1, 2014

Station Historical Data
Daily Summary for June 8, 2012 Units:  Metric    English   Both
« Previous Day
Next Day »
Daily Weekly Monthly Yearly Custom
  High: Low: Average:
Temperature: 22.1 °C 10.4 °C 15.6 °C
Dew Point: 14.9 °C 7.7 °C 11.6 °C
Humidity: 93% 51% 78%
Wind Speed: 14.5km/h 0km/h 3.7km/h
Wind Gust: 30.6km/h - -
Wind- - SW
Pressure: 1011.1 hPa 1004.6 hPa -
Precipitation: 7.1 mm    
Historical Graphs
 
 
Tabular Data for June 8, 2012
Time Temperature Dew Point Pressure Wind Wind Speed Wind Gust Humidity Daily Rainfall
00:04 11.6 °C 7.7 °C 1010.7 hPa Calm   9.7 km/h 77% 0 mm
00:09 11.8 °C 7.7 °C 1010.7 hPa Calm   9.7 km/h 76% 0 mm
00:14 11.9 °C 7.8 °C 1010.7 hPa Calm   6.4 km/h 76% 0 mm
00:19 11.8 °C 7.9 °C 1010.7 hPa Calm   1.6 km/h 77% 0 mm
00:24 11.7 °C 8 °C 1010.7 hPa Calm   6.4 km/h 78% 0 mm
00:29 11.7 °C 8 °C 1010.7 hPa Calm   6.4 km/h 78% 0 mm
00:34 12 °C 8.3 °C 1010.7 hPa SW 1.6 km/h 8 km/h 78% 0 mm
00:39 12.3 °C 8.6 °C 1010.7 hPa Calm   8 km/h 78% 0 mm
00:44 12.8 °C 9.1 °C 1010.7 hPa SSW 3.2 km/h 11.3 km/h 78% 0 mm
00:49 13.3 °C 9.5 °C 1011.1 hPa SW 1.6 km/h 11.3 km/h 78% 0 mm
00:54 13.7 °C 9.7 °C 1011.1 hPa WSW 1.6 km/h 11.3 km/h 77% 0 mm
00:59 14 °C 10.1 °C 1011.1 hPa WSW 3.2 km/h 11.3 km/h 77% 0 mm
01:04 14.4 °C 10.3 °C 1010.7 hPa WSW 6.4 km/h 14.5 km/h 76% 0 mm
01:09 14.6 °C 10.2 °C 1010.7 hPa Calm   14.5 km/h 75% 0 mm
01:14 14.6 °C 10 °C 1010.7 hPa Calm   8 km/h 74% 0 mm
01:19 14.5 °C 9.9 °C 1010.4 hPa Calm   11.3 km/h 74% 0 mm
01:24 14.3 °C 9.8 °C 1010.4 hPa Calm   11.3 km/h 74% 0 mm
01:29 14.2 °C 9.8 °C 1010.4 hPa SW 1.6 km/h 6.4 km/h 75% 0 mm
01:34 14 °C 9.7 °C 1010.4 hPa Calm   6.4 km/h 75% 0 mm
01:39 13.8 °C 9.7 °C 1010 hPa Calm   1.6 km/h 76% 0 mm
01:44 13.7 °C 9.5 °C 1010 hPa Calm   1.6 km/h 76% 0 mm
01:49 13.4 °C 9.5 °C 1010.4 hPa Calm   6.4 km/h 77% 0 mm
01:54 13.2 °C 9.4 °C 1010 hPa Calm   6.4 km/h 78% 0 mm
01:59 12.9 °C 9.2 °C 1010 hPa Calm   6.4 km/h 78% 0 mm
02:04 12.8 °C 9.2 °C 1010 hPa Calm   1.6 km/h 79% 0 mm
02:09 12.7 °C 9.3 °C 1009.7 hPa Calm   1.6 km/h 80% 0 mm
02:14 12.6 °C 9.3 °C 1009.7 hPa Calm   3.2 km/h 80% 0 mm
02:19 12.6 °C 9.3 °C 1010 hPa Calm   6.4 km/h 80% 0 mm
02:24 12.6 °C 9.2 °C 1010 hPa Calm   6.4 km/h 80% 0 mm
02:29 12.4 °C 9.1 °C 1010 hPa Calm   1.6 km/h 80% 0 mm
02:34 12.3 °C 9.2 °C 1009.7 hPa Calm   1.6 km/h 81% 0 mm
02:44 12.2 °C 9.2 °C 1009.7 hPa Calm     82% 0 mm
02:49 12.1 °C 9.1 °C 1009.7 hPa Calm     82% 0 mm
02:54 11.9 °C 8.9 °C 1009.7 hPa Calm     82% 0 mm
02:59 11.8 °C 9.1 °C 1009.7 hPa Calm     83% 0 mm
03:04 11.7 °C 9.1 °C 1009.7 hPa Calm     84% 0 mm
03:09 11.5 °C 8.9 °C 1009.4 hPa Calm     84% 0 mm
03:14 11.3 °C 8.9 °C 1009.4 hPa Calm     85% 0 mm
03:19 11.3 °C 9 °C 1009.4 hPa Calm     86% 0 mm
03:24 11.2 °C 8.9 °C 1009.4 hPa Calm     86% 0 mm
03:29 11.3 °C 9 °C 1009.4 hPa Calm     86% 0 mm
03:34 11.3 °C 9 °C 1009.4 hPa Calm     86% 0 mm
03:39 11.2 °C 8.9 °C 1009.4 hPa Calm     86% 0 mm
03:44 11.2 °C 8.7 °C 1009.4 hPa Calm     85% 0 mm
03:49 11.1 °C 8.8 °C 1009.4 hPa Calm     86% 0 mm
03:54 11.1 °C 8.8 °C 1009.4 hPa Calm     86% 0 mm
03:59 11.1 °C 8.8 °C 1009.4 hPa Calm     86% 0 mm
04:04 11 °C 8.7 °C 1009.4 hPa Calm     86% 0 mm
04:09 10.9 °C 8.7 °C 1009.4 hPa Calm     86% 0 mm
04:14 10.9 °C 8.8 °C 1009.4 hPa Calm     87% 0 mm
04:19 10.9 °C 8.9 °C 1009.4 hPa SSW 1.6 km/h 4.8 km/h 87% 0 mm
04:24 10.9 °C 8.9 °C 1009 hPa Calm   4.8 km/h 87% 0 mm
04:29 10.9 °C 8.8 °C 1009.4 hPa Calm     87% 0 mm
04:34 10.9 °C 8.9 °C 1009 hPa Calm     87% 0 mm
04:39 11 °C 8.9 °C 1009 hPa Calm     87% 0 mm
04:44 11.1 °C 9.1 °C 1009 hPa Calm   8 km/h 87% 0 mm
04:49 11.3 °C 9.2 °C 1009.4 hPa Calm   8 km/h 87% 0 mm
04:54 11.2 °C 8.9 °C 1009.4 hPa Calm     86% 0 mm
04:59 11.2 °C 8.9 °C 1009.4 hPa Calm     86% 0 mm
05:04 11.1 °C 8.8 °C 1009.4 hPa Calm   1.6 km/h 86% 0 mm
05:09 11.1 °C 8.8 °C 1009.4 hPa Calm   1.6 km/h 86% 0 mm
05:14 11 °C 8.7 °C 1009.4 hPa Calm     86% 0 mm
05:19 10.9 °C 8.7 °C 1009.4 hPa Calm     86% 0 mm
05:24 11.1 °C 9 °C 1009.4 hPa Calm     87% 0 mm
05:29 11.2 °C 8.9 °C 1009.4 hPa Calm   1.6 km/h 86% 0 mm
05:34 11.3 °C 9 °C 1009.7 hPa Calm   1.6 km/h 86% 0 mm
05:39 11.4 °C 9.1 °C 1009.7 hPa Calm   1.6 km/h 86% 0 mm
05:44 11.4 °C 9.2 °C 1009.7 hPa Calm     86% 0 mm
05:49 11.5 °C 9.1 °C 1009.7 hPa Calm   8 km/h 85% 0 mm
05:54 11.6 °C 9.1 °C 1009.7 hPa SW 1.6 km/h 8 km/h 85% 0 mm
06:04 11.7 °C 9.3 °C 1009.7 hPa Calm   9.7 km/h 85% 0 mm
06:09 11.8 °C 9.2 °C 1009.7 hPa Calm   9.7 km/h 84% 0 mm
06:14 11.8 °C 9.2 °C 1009.4 hPa SSW 1.6 km/h 8 km/h 84% 0 mm
06:19 11.9 °C 9.3 °C 1009.4 hPa SW 4.8 km/h 11.3 km/h 84% 0 mm
06:24 11.9 °C 9.3 °C 1009.4 hPa SW 4.8 km/h 11.3 km/h 84% 0 mm
06:29 12.1 °C 9.4 °C 1009.4 hPa SW 4.8 km/h 12.9 km/h 84% 0 mm
06:34 12.2 °C 9.6 °C 1009.4 hPa SSW 4.8 km/h 14.5 km/h 84% 0 mm
06:39 12.4 °C 9.6 °C 1009.7 hPa SW 6.4 km/h 14.5 km/h 83% 0 mm
06:44 12.7 °C 9.8 °C 1009.7 hPa SSW 4.8 km/h 12.9 km/h 83% 0 mm
06:49 12.8 °C 10 °C 1009.7 hPa SSW 3.2 km/h 12.9 km/h 83% 0 mm
06:54 13 °C 10 °C 1009.7 hPa SW 3.2 km/h 9.7 km/h 82% 0 mm
06:59 13.2 °C 10.2 °C 1009.7 hPa SW 4.8 km/h 17.7 km/h 82% 0 mm
07:04 13.4 °C 10.4 °C 1009.7 hPa SSW 3.2 km/h 17.7 km/h 82% 0 mm
07:09 13.6 °C 10.4 °C 1009.7 hPa SSW 8 km/h 16.1 km/h 81% 0 mm
07:14 13.8 °C 10.6 °C 1009.7 hPa SSW 8 km/h 16.1 km/h 81% 0 mm
07:19 14.1 °C 10.8 °C 1009.7 hPa SW 4.8 km/h 16.1 km/h 81% 0 mm
07:24 14.3 °C 10.9 °C 1009.7 hPa SW 3.2 km/h 11.3 km/h 80% 0 mm
07:29 14.4 °C 11.1 °C 1009.7 hPa Calm   11.3 km/h 80% 0 mm
07:34 14.7 °C 11.1 °C 1009.7 hPa SSW 3.2 km/h 14.5 km/h 79% 0 mm
07:39 14.8 °C 11.1 °C 1009.7 hPa SW 3.2 km/h 19.3 km/h 78% 0 mm
07:44 15 °C 11.4 °C 1009.7 hPa SSW 3.2 km/h 19.3 km/h 79% 0 mm
07:49 15 °C 11.2 °C 1009.4 hPa SW 4.8 km/h 12.9 km/h 78% 0 mm
07:54 15.2 °C 11.2 °C 1009.7 hPa SSW 4.8 km/h 14.5 km/h 77% 0 mm
07:59 15.4 °C 11.4 °C 1009.7 hPa South 1.6 km/h 16.1 km/h 77% 0 mm
08:04 15.7 °C 11.4 °C 1009.7 hPa SSW 4.8 km/h 16.1 km/h 76% 0 mm
08:09 15.9 °C 11.7 °C 1009.7 hPa SSW 1.6 km/h 16.1 km/h 76% 0 mm
08:14 16.3 °C 11.8 °C 1009.7 hPa SSW 3.2 km/h 16.1 km/h 75% 0 mm
08:19 16.6 °C 12.2 °C 1009.7 hPa SW 3.2 km/h 16.1 km/h 75% 0 mm
08:24 16.9 °C 12 °C 1009.7 hPa SSW 4.8 km/h 14.5 km/h 73% 0 mm
08:29 17 °C 12.1 °C 1009.4 hPa SSW 1.6 km/h 14.5 km/h 73% 0 mm
08:34 17.2 °C 12.3 °C 1009.4 hPa SW 3.2 km/h 16.1 km/h 73% 0 mm
08:39 17.4 °C 12.5 °C 1009.4 hPa SSW 8 km/h 16.1 km/h 73% 0 mm
08:44 17.6 °C 12.5 °C 1009.4 hPa SSW 3.2 km/h 16.1 km/h 72% 0 mm
08:49 18 °C 12.7 °C 1009.4 hPa SW 8 km/h 17.7 km/h 71% 0 mm
08:54 18.2 °C 12.8 °C 1009.4 hPa SSW 4.8 km/h 17.7 km/h 71% 0 mm
08:59 18.4 °C 13.3 °C 1009.4 hPa Calm   16.1 km/h 72% 0 mm
09:04 18.4 °C 12.7 °C 1009 hPa SW 8 km/h 16.1 km/h 69% 0 mm
09:09 18.3 °C 12.9 °C 1009 hPa Calm   17.7 km/h 71% 0 mm
09:14 18.3 °C 12.8 °C 1009 hPa SSW 1.6 km/h 17.7 km/h 70% 0 mm
09:19 18.6 °C 13.1 °C 1009 hPa SSW 1.6 km/h 11.3 km/h 70% 0 mm
09:24 18.6 °C 13.3 °C 1009 hPa SW 1.6 km/h 11.3 km/h 71% 0 mm
09:29 18.8 °C 13.4 °C 1009 hPa SW 1.6 km/h 12.9 km/h 71% 0 mm
09:34 18.9 °C 13.3 °C 1009 hPa Calm   12.9 km/h 70% 0 mm
09:39 18.8 °C 12.8 °C 1009 hPa SSW 6.4 km/h 12.9 km/h 68% 0 mm
09:44 18.5 °C 12.7 °C 1009 hPa Calm   12.9 km/h 69% 0 mm
09:49 18.3 °C 12.8 °C 1009 hPa SW 3.2 km/h 11.3 km/h 70% 0 mm
09:54 18.4 °C 13.1 °C 1009 hPa SSW 4.8 km/h 14.5 km/h 71% 0 mm
09:59 18.9 °C 13.6 °C 1008.7 hPa SW 3.2 km/h 14.5 km/h 71% 0 mm
10:04 19.8 °C 14.4 °C 1008.7 hPa SSW 1.6 km/h 11.3 km/h 71% 0 mm
10:09 20.1 °C 14 °C 1008.7 hPa SW 3.2 km/h 12.9 km/h 68% 0 mm
10:14 20.2 °C 13.4 °C 1008.7 hPa SSW 6.4 km/h 12.9 km/h 65% 0 mm
10:24 20.1 °C 13.5 °C 1008.7 hPa SSW 4.8 km/h 12.9 km/h 66% 0 mm
10:29 20 °C 13.4 °C 1008.7 hPa SW 3.2 km/h 12.9 km/h 66% 0 mm
10:39 20.4 °C 14.7 °C 1008.4 hPa SW 1.6 km/h 12.9 km/h 70% 0 mm
10:44 20.6 °C 14.1 °C 1008.4 hPa South 3.2 km/h 12.9 km/h 66% 0 mm
10:49 20.4 °C 13.6 °C 1008.4 hPa South 6.4 km/h 16.1 km/h 65% 0 mm
10:54 20.4 °C 14.1 °C 1008 hPa SW 1.6 km/h 16.1 km/h 67% 0 mm
10:59 20.7 °C 13.8 °C 1008 hPa SW 1.6 km/h 14.5 km/h 65% 0 mm
11:04 20.7 °C 13.4 °C 1008 hPa SSW 6.4 km/h 14.5 km/h 63% 0 mm
11:09 20.4 °C 13.7 °C 1008 hPa SSW 6.4 km/h 17.7 km/h 65% 0 mm
11:14 20.5 °C 13.4 °C 1008 hPa SSW 9.7 km/h 19.3 km/h 64% 0 mm
11:19 20.6 °C 14.2 °C 1008 hPa Calm   22.5 km/h 67% 0 mm
11:24 20.9 °C 14.3 °C 1008 hPa SW 1.6 km/h 22.5 km/h 66% 0 mm
11:29 21.4 °C 14.6 °C 1008 hPa SW 1.6 km/h 16.1 km/h 65% 0 mm
11:34 21.6 °C 14.2 °C 1008 hPa SSW 8 km/h 17.7 km/h 63% 0 mm
11:39 21.4 °C 13.6 °C 1008 hPa SW 6.4 km/h 24.1 km/h 61% 0 mm
11:44 21.3 °C 14.3 °C 1007.7 hPa SW 1.6 km/h 24.1 km/h 64% 0 mm
11:49 21.3 °C 14.5 °C 1007.7 hPa Calm   19.3 km/h 65% 0 mm
11:54 21.5 °C 14.4 °C 1008 hPa SW 4.8 km/h 17.7 km/h 64% 0 mm
11:59 21.7 °C 14.6 °C 1007.7 hPa SSW 1.6 km/h 14.5 km/h 64% 0 mm
12:04 21.6 °C 13.8 °C 1007.7 hPa SSW 4.8 km/h 16.1 km/h 61% 0 mm
12:09 21.4 °C 14.1 °C 1007.7 hPa SW 3.2 km/h 16.1 km/h 63% 0 mm
12:14 21.4 °C 14.6 °C 1007.7 hPa SSW 3.2 km/h 12.9 km/h 65% 0 mm
12:19 21.4 °C 14.1 °C 1007.7 hPa SW 4.8 km/h 16.1 km/h 63% 0 mm
12:29 21.2 °C 14.2 °C 1007.7 hPa Calm   14.5 km/h 64% 0 mm
12:34 21.3 °C 14 °C 1007.7 hPa SW 4.8 km/h 12.9 km/h 63% 0 mm
12:39 21.4 °C 14.3 °C 1007.7 hPa SW 1.6 km/h 14.5 km/h 64% 0 mm
12:44 21.2 °C 14.2 °C 1007.7 hPa Calm   19.3 km/h 64% 0 mm
12:49 21.2 °C 14.8 °C 1007.7 hPa WSW 4.8 km/h 19.3 km/h 67% 0 mm
12:54 21.2 °C 14.1 °C 1007.7 hPa SW 3.2 km/h 14.5 km/h 64% 0 mm
12:59 21.2 °C 14.6 °C 1007.7 hPa SSW 3.2 km/h 14.5 km/h 66% 0 mm
13:04 21.1 °C 13.6 °C 1007.7 hPa SSW 4.8 km/h 14.5 km/h 62% 0 mm
13:09 21.2 °C 14.6 °C 1007.7 hPa SSW 1.6 km/h 20.9 km/h 66% 0 mm
13:14 21.4 °C 14.8 °C 1007.7 hPa SW 1.6 km/h 20.9 km/h 66% 0 mm
13:19 21.4 °C 14.1 °C 1007.3 hPa SW 3.2 km/h 11.3 km/h 63% 0 mm
13:24 21.6 °C 14.9 °C 1007.3 hPa Calm   9.7 km/h 66% 0 mm
13:29 21.5 °C 14.2 °C 1007.7 hPa Calm   8 km/h 63% 0 mm
13:34 21.2 °C 13.9 °C 1007.3 hPa West 1.6 km/h 9.7 km/h 63% 0 mm
13:39 20.9 °C 13.8 °C 1007.7 hPa West 1.6 km/h 12.9 km/h 64% 0 mm
13:44 20.7 °C 13.9 °C 1007.7 hPa Calm   12.9 km/h 65% 0 mm
13:49 20.5 °C 14.2 °C 1007.7 hPa Calm   12.9 km/h 67% 0 mm
13:54 20.3 °C 14.2 °C 1007.7 hPa West 1.6 km/h 12.9 km/h 68% 0 mm
13:59 20.2 °C 14.1 °C 1007.7 hPa WNW 6.4 km/h 12.9 km/h 68% 0 mm
14:04 20.1 °C 14 °C 1007.7 hPa West 4.8 km/h 12.9 km/h 68% 0 mm
14:09 20 °C 14.2 °C 1007.7 hPa SW 1.6 km/h 12.9 km/h 69% 0 mm
14:14 19.9 °C 14.1 °C 1007.7 hPa Calm   9.7 km/h 69% 0 mm
14:19 19.8 °C 14 °C 1007.7 hPa WNW 4.8 km/h 12.9 km/h 69% 0 mm
14:24 19.7 °C 14.3 °C 1007.7 hPa NW 4.8 km/h 12.9 km/h 71% 0 mm
14:29 19.6 °C 13.8 °C 1007.7 hPa NW 6.4 km/h 19.3 km/h 69% 0 mm
14:34 19.5 °C 13.4 °C 1007.7 hPa NW 8 km/h 19.3 km/h 68% 0 mm
14:39 19.4 °C 13.3 °C 1007.3 hPa WNW 4.8 km/h 17.7 km/h 68% 0 mm
14:49 19.7 °C 13.4 °C 1007 hPa NNW 4.8 km/h 9.7 km/h 67% 0 mm
14:54 19.8 °C 12.3 °C 1006.7 hPa Calm   9.7 km/h 62% 0 mm
14:59 19.9 °C 12.9 °C 1006.7 hPa Calm   4.8 km/h 64% 0 mm
15:04 19.9 °C 12.9 °C 1006.3 hPa Calm   4.8 km/h 64% 0 mm
15:09 19.9 °C 12.7 °C 1006.3 hPa Calm   1.6 km/h 63% 0 mm
15:14 20.1 °C 13.3 °C 1006 hPa Calm     65% 0 mm
15:19 20.4 °C 13.9 °C 1006 hPa Calm   1.6 km/h 66% 0 mm
15:24 20.5 °C 12.5 °C 1006 hPa Calm   1.6 km/h 60% 0 mm
15:29 20.5 °C 13.2 °C 1006 hPa Calm   1.6 km/h 63% 0 mm
15:34 20.5 °C 13.7 °C 1006 hPa Calm     65% 0 mm
15:39 20.6 °C 13.8 °C 1005.6 hPa SW 1.6 km/h 4.8 km/h 65% 0 mm
15:44 20.7 °C 13.6 °C 1005.6 hPa Calm   4.8 km/h 64% 0 mm
15:49 20.8 °C 13.9 °C 1005.6 hPa Calm   3.2 km/h 65% 0 mm
15:54 20.7 °C 11.8 °C 1005.6 hPa Calm   8 km/h 57% 0 mm
15:59 20.8 °C 12 °C 1005.6 hPa Calm   8 km/h 57% 0 mm
16:04 21.1 °C 12.7 °C 1005.6 hPa SW 1.6 km/h 8 km/h 59% 0 mm
16:09 21.1 °C 12.7 °C 1005.6 hPa Calm   8 km/h 59% 0 mm
16:14 21.2 °C 12.6 °C 1005.6 hPa Calm   4.8 km/h 58% 0 mm
16:19 21.3 °C 12.7 °C 1005.6 hPa Calm   1.6 km/h 58% 0 mm
16:24 21.6 °C 11 °C 1005.3 hPa SW 4.8 km/h 8 km/h 51% 0 mm
16:29 21.7 °C 12.5 °C 1005.3 hPa Calm   8 km/h 56% 0 mm
16:34 21.9 °C 12.7 °C 1005 hPa WSW 1.6 km/h 6.4 km/h 56% 0 mm
16:39 22.1 °C 12.1 °C 1005 hPa NW 4.8 km/h 9.7 km/h 53% 0 mm
16:44 21.6 °C 12.7 °C 1005 hPa NW 1.6 km/h 9.7 km/h 57% 0 mm
16:49 21.2 °C 11.8 °C 1005 hPa NW 3.2 km/h 9.7 km/h 55% 0 mm
16:54 20.8 °C 12 °C 1005 hPa NW 1.6 km/h 8 km/h 57% 0 mm
16:59 20.6 °C 12.1 °C 1005 hPa Calm   4.8 km/h 58% 0 mm
17:04 20.4 °C 12.2 °C 1005 hPa Calm     59% 0 mm
17:09 20.4 °C 14.1 °C 1004.6 hPa Calm     67% 0 mm
17:14 19.5 °C 14.1 °C 1004.6 hPa NW 1.6 km/h 4.8 km/h 71% 0.3 mm
17:19 18.8 °C 14.1 °C 1005 hPa Calm   4.8 km/h 74% 0.3 mm
17:24 18.2 °C 14.1 °C 1005 hPa Calm   1.6 km/h 77% 0.3 mm
17:29 17.7 °C 14.2 °C 1005 hPa Calm     80% 0.3 mm
17:34 17.4 °C 14.1 °C 1005.3 hPa Calm     81% 0.3 mm
17:39 17.2 °C 14.1 °C 1005.3 hPa Calm   4.8 km/h 82% 0.3 mm
17:44 16.9 °C 13.8 °C 1005.3 hPa WNW 1.6 km/h 8 km/h 82% 0.3 mm
17:49 16.8 °C 13.7 °C 1005.3 hPa Calm   8 km/h 82% 0.3 mm
17:54 16.7 °C 13.8 °C 1005.3 hPa Calm   3.2 km/h 83% 0.3 mm
17:59 16.6 °C 13.7 °C 1005.3 hPa Calm   3.2 km/h 83% 0.3 mm
18:04 16.4 °C 13.7 °C 1005.3 hPa Calm   3.2 km/h 84% 0.3 mm
18:09 16.2 °C 13.5 °C 1005.3 hPa Calm   1.6 km/h 84% 0.3 mm
18:14 16.1 °C 13.3 °C 1005.3 hPa Calm     84% 0.3 mm
18:19 15.8 °C 13.3 °C 1005.3 hPa Calm     85% 0.3 mm
18:24 15.7 °C 13.3 °C 1005.3 hPa Calm     86% 0.3 mm
18:29 15.6 °C 13.2 °C 1005.3 hPa Calm   1.6 km/h 86% 0.3 mm
18:39 15.3 °C 12.9 °C 1005.3 hPa Calm   1.6 km/h 86% 0.3 mm
18:44 15.1 °C 12.8 °C 1005.3 hPa Calm   1.6 km/h 86% 0.3 mm
18:49 15 °C 12.8 °C 1005.6 hPa Calm   1.6 km/h 87% 0.3 mm
18:54 15 °C 12.8 °C 1006 hPa Calm   1.6 km/h 87% 0.5 mm
18:59 15 °C 12.8 °C 1006.3 hPa WNW 14.5 km/h 30.6 km/h 87% 2.5 mm
19:04 14.8 °C 12.4 °C 1006 hPa NW 4.8 km/h 30.6 km/h 86% 4.3 mm
19:09 14.7 °C 12.5 °C 1006.3 hPa NW 1.6 km/h 25.7 km/h 87% 4.6 mm
19:14 14.6 °C 12.5 °C 1005.3 hPa WNW 3.2 km/h 6.4 km/h 87% 5.3 mm
19:24 14.4 °C 12.4 °C 1006.3 hPa WNW 3.2 km/h 8 km/h 88% 5.6 mm
19:29 14.3 °C 12.5 °C 1006.3 hPa Calm   6.4 km/h 89% 5.8 mm
19:34 14.2 °C 12.6 °C 1006.7 hPa WSW 3.2 km/h 6.4 km/h 90% 6.1 mm
19:39 14 °C 12.2 °C 1006.7 hPa West 11.3 km/h 20.9 km/h 89% 6.1 mm
19:44 13.8 °C 11.9 °C 1006.7 hPa WSW 8 km/h 24.1 km/h 88% 6.1 mm
19:49 13.8 °C 11.8 °C 1006.7 hPa SW 4.8 km/h 24.1 km/h 88% 6.1 mm
19:54 13.7 °C 11.9 °C 1006.7 hPa WSW 3.2 km/h 12.9 km/h 89% 6.1 mm
19:59 13.6 °C 11.8 °C 1006.7 hPa WSW 4.8 km/h 12.9 km/h 89% 6.6 mm
20:04 13.6 °C 11.8 °C 1006.3 hPa SW 3.2 km/h 11.3 km/h 89% 6.9 mm
20:09 13.6 °C 11.8 °C 1006.7 hPa West 3.2 km/h 9.7 km/h 89% 7.1 mm
20:14 13.6 °C 11.8 °C 1006.3 hPa WSW 3.2 km/h 9.7 km/h 89% 7.1 mm
20:19 13.6 °C 11.9 °C 1006 hPa SSW 3.2 km/h 8 km/h 90% 7.1 mm
20:24 13.5 °C 11.7 °C 1006 hPa SSW 1.6 km/h 8 km/h 89% 7.1 mm
20:29 13.4 °C 11.7 °C 1006.3 hPa SSW 1.6 km/h 8 km/h 89% 7.1 mm
20:34 13.3 °C 11.5 °C 1006.3 hPa SSW 1.6 km/h 6.4 km/h 89% 7.1 mm
20:39 13.1 °C 11.3 °C 1006.3 hPa SSW 3.2 km/h 9.7 km/h 89% 7.1 mm
20:44 13 °C 11.7 °C 1006.3 hPa SSW 3.2 km/h 9.7 km/h 92% 7.1 mm
20:49 12.9 °C 11.1 °C 1006.3 hPa Calm   8 km/h 89% 7.1 mm
20:54 12.7 °C 11.1 °C 1006.3 hPa SSW 1.6 km/h 6.4 km/h 90% 7.1 mm
20:59 12.7 °C 11.1 °C 1006.3 hPa Calm   6.4 km/h 90% 7.1 mm
21:04 12.5 °C 10.9 °C 1006.3 hPa SSW 1.6 km/h 4.8 km/h 90% 7.1 mm
21:09 12.3 °C 10.7 °C 1006.7 hPa Calm   4.8 km/h 90% 7.1 mm
21:14 12.2 °C 10.6 °C 1006.7 hPa SSW 1.6 km/h 6.4 km/h 90% 7.1 mm
21:19 12.1 °C 10.4 °C 1006.7 hPa SW 1.6 km/h 8 km/h 90% 7.1 mm
21:24 12.1 °C 10.7 °C 1007 hPa WSW 3.2 km/h 8 km/h 91% 7.1 mm
21:29 12.1 °C 10.6 °C 1007 hPa West 1.6 km/h 11.3 km/h 91% 7.1 mm
21:34 12.1 °C 10.7 °C 1007 hPa Calm   11.3 km/h 91% 7.1 mm
21:39 12.1 °C 10.7 °C 1007 hPa Calm   3.2 km/h 91% 7.1 mm
21:44 12.1 °C 10.7 °C 1007 hPa Calm   3.2 km/h 91% 7.1 mm
21:49 12.1 °C 10.7 °C 1007 hPa Calm   6.4 km/h 91% 7.1 mm
21:54 12.2 °C 10.7 °C 1007.3 hPa Calm   6.4 km/h 91% 7.1 mm
21:59 12.1 °C 10.7 °C 1007 hPa Calm   4.8 km/h 91% 7.1 mm
22:04 12 °C 10.6 °C 1007.3 hPa Calm   1.6 km/h 91% 7.1 mm
22:09 12.1 °C 10.8 °C 1007.3 hPa Calm   4.8 km/h 92% 7.1 mm
22:14 12.1 °C 10.8 °C 1007.3 hPa Calm   4.8 km/h 92% 7.1 mm
22:19 12.1 °C 10.8 °C 1007.3 hPa Calm   8 km/h 92% 7.1 mm
22:24 12.1 °C 10.8 °C 1007.3 hPa Calm   8 km/h 92% 7.1 mm
22:29 12.1 °C 10.8 °C 1007.7 hPa Calm   4.8 km/h 92% 7.1 mm
22:34 12 °C 10.7 °C 1007.7 hPa Calm   1.6 km/h 92% 7.1 mm
22:39 12 °C 10.7 °C 1007.7 hPa Calm   1.6 km/h 92% 7.1 mm
22:44 11.9 °C 10.7 °C 1007.7 hPa SW 1.6 km/h 4.8 km/h 92% 7.1 mm
22:49 11.9 °C 10.6 °C 1007.7 hPa Calm   4.8 km/h 92% 7.1 mm
22:54 11.7 °C 10.4 °C 1007.7 hPa Calm   4.8 km/h 92% 7.1 mm
22:59 11.6 °C 10.3 °C 1007.7 hPa Calm   3.2 km/h 92% 7.1 mm
23:04 11.4 °C 10.2 °C 1008 hPa SW 1.6 km/h 4.8 km/h 92% 7.1 mm
23:09 11.3 °C 10 °C 1008 hPa SW 1.6 km/h 4.8 km/h 92% 7.1 mm
23:14 11.3 °C 10 °C 1008 hPa Calm   6.4 km/h 92% 7.1 mm
23:19 11.2 °C 9.9 °C 1008 hPa Calm   6.4 km/h 92% 7.1 mm
23:24 11.2 °C 9.9 °C 1008 hPa Calm   1.6 km/h 92% 7.1 mm
23:29 11.1 °C 9.8 °C 1008 hPa Calm   1.6 km/h 92% 7.1 mm
23:34 10.9 °C 9.7 °C 1008 hPa Calm     92% 7.1 mm
23:39 10.8 °C 9.6 °C 1008 hPa Calm     92% 7.1 mm
23:44 10.6 °C 9.4 °C 1008 hPa Calm     92% 7.1 mm
23:49 10.5 °C 9.3 °C 1008 hPa Calm     92% 7.1 mm
23:54 10.4 °C 9.2 °C 1008 hPa Calm   1.6 km/h 92% 7.1 mm
23:59 10.6 °C 9.4 °C 1008.4 hPa Calm   1.6 km/h 93% 7.1 mm
Westford Weather
Compliments of Weather Underground

 
 
Current Radar Loop:

Copyright © WestfordWeather.net 2007-2014. All rights reserved.